Time;durP1;ratioP1;P1;durP2;ratioP2;P2;SDS_P1;SDS_P2;PMS_P1;PMS_P2;Temp;Humidity;BMP_temperature;BMP_pressure;BME280_temperature;BME280_humidity;BME280_pressure;Samples;Min_cycle;Max_cycle;Signal;HPM_P1;HPM_P2
2023/07/07 00:03:37;;;;;;;3.22;1.40;;;;;;;14.10;49.88;100275.03;10384048;28;20049;-60
2023/07/07 00:08:39;;;;;;;1.67;1.02;;;;;;;14.08;50.14;100276.06;10384554;28;20061;-60
2023/07/07 00:13:41;;;;;;;2.47;1.33;;;;;;;13.97;50.19;100276.81;10371057;28;20867;-60
2023/07/07 00:18:43;;;;;;;2.03;1.20;;;;;;;13.97;50.27;100262.81;10379310;28;20125;-60
2023/07/07 00:23:45;;;;;;;2.22;1.45;;;;;;;13.84;50.42;100272.50;10385244;28;20103;-60
2023/07/07 00:28:48;;;;;;;2.35;1.20;;;;;;;13.70;50.92;100281.28;10392456;28;20294;-60
2023/07/07 00:33:50;;;;;;;1.42;1.00;;;;;;;13.67;50.98;100271.00;10392056;28;20049;-60
2023/07/07 00:38:52;;;;;;;1.60;1.08;;;;;;;13.56;51.18;100279.59;10391455;28;21000;-60
2023/07/07 00:44:05;;;;;;;2.45;1.20;;;;;;;13.53;52.28;100277.19;10390700;28;20049;-59
2023/07/07 00:49:13;;;;;;;1.25;1.02;;;;;;;13.46;51.72;100275.03;10389951;28;20080;-60
2023/07/07 00:54:20;;;;;;;2.33;1.20;;;;;;;13.39;51.93;100284.25;10391212;28;20057;-60
2023/07/07 00:59:44;;;;;;;1.42;1.00;;;;;;;13.39;52.86;100286.88;10389384;28;20053;-60
2023/07/07 01:04:51;;;;;;;4.07;1.40;;;;;;;13.30;51.90;100280.44;10388390;28;20501;-60
2023/07/07 01:09:54;;;;;;;1.42;1.05;;;;;;;13.17;52.43;100284.78;10390177;28;20081;-60
2023/07/07 01:14:56;;;;;;;3.20;1.30;;;;;;;13.12;52.34;100289.50;10386913;28;20119;-60
2023/07/07 01:20:12;;;;;;;2.35;1.17;;;;;;;13.07;53.65;100291.59;10303025;28;20140;-60
2023/07/07 01:25:36;;;;;;;4.55;1.60;;;;;;;13.04;53.77;100290.94;10304962;28;20474;-60
2023/07/07 01:31:02;;;;;;;2.25;1.25;;;;;;;12.95;53.95;100292.38;10319050;28;20431;-60
2023/07/07 01:36:04;;;;;;;1.83;1.17;;;;;;;12.95;52.80;100297.63;10304566;28;20148;-60
2023/07/07 01:41:24;;;;;;;2.00;0.98;;;;;;;12.77;53.81;100299.63;10317355;28;20050;-60
2023/07/07 01:46:38;;;;;;;1.08;0.90;;;;;;;12.76;53.98;100295.31;10304550;28;20163;-60
2023/07/07 01:51:51;;;;;;;2.22;1.08;;;;;;;12.67;53.88;100298.53;10303920;28;20136;-60
2023/07/07 01:56:55;;;;;;;1.73;1.00;;;;;;;12.45;53.60;100297.31;10288926;28;20054;-60
2023/07/07 02:01:57;;;;;;;1.15;0.88;;;;;;;12.41;53.62;100301.94;10301052;28;20148;-60
2023/07/07 02:06:59;;;;;;;1.85;1.10;;;;;;;12.41;53.94;100299.31;10310947;28;20062;-60
2023/07/07 02:12:04;;;;;;;4.25;1.20;;;;;;;12.33;54.15;100304.19;10309944;28;20105;-60
2023/07/07 02:17:06;;;;;;;3.38;1.30;;;;;;;12.37;54.01;100303.06;10304662;28;1144834;-60
2023/07/07 02:22:09;;;;;;;1.65;1.10;;;;;;;12.31;54.02;100300.81;10393726;28;20045;-60
2023/07/07 02:27:12;;;;;;;1.80;1.00;;;;;;;12.28;54.13;100300.09;10394341;28;20049;-60
2023/07/07 02:32:14;;;;;;;2.03;1.00;;;;;;;12.20;54.31;100303.19;10391427;28;20132;-59
2023/07/07 02:37:17;;;;;;;1.80;1.20;;;;;;;12.06;54.54;100306.66;10392410;28;20099;-60
2023/07/07 02:42:20;;;;;;;2.92;1.10;;;;;;;12.11;54.46;100308.97;10393624;28;20081;-60
2023/07/07 02:47:22;;;;;;;1.73;1.10;;;;;;;12.10;54.40;100316.00;10388767;28;20127;-60
2023/07/07 02:52:24;;;;;;;3.95;1.15;;;;;;;11.97;54.84;100317.66;10393630;28;20164;-59
2023/07/07 02:57:26;;;;;;;1.85;1.20;;;;;;;11.95;54.85;100323.94;10391484;28;20073;-60
2023/07/07 03:02:28;;;;;;;2.40;1.15;;;;;;;11.97;54.63;100322.06;10387389;28;20032;-59
2023/07/07 03:07:30;;;;;;;2.17;1.30;;;;;;;11.89;54.81;100312.03;10387196;28;20050;-60
2023/07/07 03:12:32;;;;;;;1.30;1.10;;;;;;;11.80;55.02;100317.84;10385070;28;20139;-60
2023/07/07 03:17:35;;;;;;;1.83;1.10;;;;;;;11.78;55.05;100331.97;10383410;28;20056;-60
2023/07/07 03:22:38;;;;;;;2.58;1.10;;;;;;;11.76;55.04;100328.59;10383866;28;20517;-60
2023/07/07 03:27:41;;;;;;;1.15;0.95;;;;;;;11.61;55.22;100335.56;10384679;28;20045;-60
2023/07/07 03:32:52;;;;;;;1.48;1.00;;;;;;;11.08;55.84;100330.72;10384273;28;20049;-59
2023/07/07 03:37:54;;;;;;;2.05;1.20;;;;;;;11.18;56.05;100331.91;10384255;28;20394;-60
2023/07/07 03:42:57;;;;;;;1.30;0.90;;;;;;;11.37;55.90;100336.09;10385738;28;20038;-60
2023/07/07 03:48:01;;;;;;;2.45;1.20;;;;;;;11.16;55.91;100344.22;10383536;28;20049;-60
2023/07/07 03:53:04;;;;;;;2.50;1.20;;;;;;;11.27;56.17;100352.31;10383845;28;20048;-60
2023/07/07 03:58:08;;;;;;;1.67;1.10;;;;;;;11.50;55.87;100356.25;10368651;28;20537;-60
2023/07/07 04:03:11;;;;;;;1.90;1.10;;;;;;;11.44;55.65;100348.75;10382107;28;20053;-60
2023/07/07 04:08:21;;;;;;;1.50;0.90;;;;;;;11.17;56.08;100347.69;10384042;28;20055;-60
2023/07/07 04:13:23;;;;;;;3.03;1.23;;;;;;;11.38;56.23;100351.72;10383143;28;20498;-60
2023/07/07 04:18:26;;;;;;;1.13;0.95;;;;;;;13.17;54.74;100344.38;10381522;28;20084;-60
2023/07/07 04:23:28;;;;;;;1.40;0.98;;;;;;;16.36;49.26;100340.97;10384606;28;20128;-60
2023/07/07 04:28:32;;;;;;;1.48;1.10;;;;;;;19.10;44.86;100330.34;10395509;28;20045;-61
2023/07/07 04:33:35;;;;;;;1.38;1.00;;;;;;;21.13;41.64;100325.44;10384061;28;20127;-60
2023/07/07 04:38:37;;;;;;;1.92;1.10;;;;;;;22.26;39.01;100314.84;10384720;28;20421;-61
2023/07/07 04:43:45;;;;;;;1.15;1.00;;;;;;;22.88;36.53;100323.53;10384921;28;20290;-61
2023/07/07 04:48:48;;;;;;;2.13;1.30;;;;;;;23.80;36.29;100327.72;10383661;28;20053;-61
2023/07/07 04:53:50;;;;;;;1.38;1.00;;;;;;;24.58;34.97;100317.28;10383651;28;20124;-61
2023/07/07 04:58:52;;;;;;;1.42;1.00;;;;;;;25.24;33.61;100322.22;10381523;28;20657;-61
2023/07/07 05:04:00;;;;;;;1.20;1.00;;;;;;;25.90;31.59;100320.59;10383719;28;20049;-61
2023/07/07 05:09:04;;;;;;;2.47;1.25;;;;;;;25.92;31.71;100327.63;10384519;28;20055;-61
2023/07/07 05:14:06;;;;;;;1.63;1.10;;;;;;;27.02;30.86;100328.47;10390772;28;20053;-61
2023/07/07 05:19:08;;;;;;;1.17;0.90;;;;;;;27.96;29.23;100325.59;10389686;28;20515;-61
2023/07/07 05:24:10;;;;;;;2.13;1.00;;;;;;;28.53;28.59;100327.28;10391370;28;20568;-61
2023/07/07 05:29:12;;;;;;;2.08;1.10;;;;;;;28.48;28.06;100319.81;10387748;28;20089;-61
2023/07/07 05:34:14;;;;;;;1.27;0.77;;;;;;;26.68;28.74;100323.72;10389951;28;20140;-61
2023/07/07 05:39:16;;;;;;;1.58;1.05;;;;;;;23.46;32.17;100340.38;10387900;28;20049;-61
2023/07/07 05:44:18;;;;;;;1.92;1.08;;;;;;;21.54;34.50;100346.16;10388277;28;20138;-61
2023/07/07 05:49:20;;;;;;;1.42;0.80;;;;;;;20.10;36.50;100357.38;10386097;28;20692;-60
2023/07/07 05:54:22;;;;;;;2.67;1.17;;;;;;;19.30;37.74;100361.22;10388420;28;20494;-60
2023/07/07 05:59:24;;;;;;;3.67;1.30;;;;;;;18.86;37.90;100366.94;10388765;28;20049;-60
2023/07/07 06:04:26;;;;;;;1.70;1.10;;;;;;;18.40;39.05;100364.78;10388633;28;20046;-60
2023/07/07 06:09:28;;;;;;;2.03;1.30;;;;;;;17.76;39.64;100367.50;10386656;28;20056;-60
2023/07/07 06:14:30;;;;;;;1.13;0.85;;;;;;;17.60;39.79;100363.59;10388576;28;20071;-60
2023/07/07 06:19:32;;;;;;;1.90;1.02;;;;;;;17.43;40.19;100354.38;10386916;28;20057;-60
2023/07/07 06:24:34;;;;;;;0.90;0.90;;;;;;;17.57;40.29;100361.16;10388367;28;20095;-60
2023/07/07 06:29:36;;;;;;;1.85;1.00;;;;;;;17.33;40.95;100360.50;10387639;28;20081;-59
2023/07/07 06:34:38;;;;;;;5.07;1.35;;;;;;;17.66;40.70;100347.22;10369919;28;20505;-60
2023/07/07 06:39:40;;;;;;;4.35;1.20;;;;;;;18.00;40.50;100347.88;10387368;28;20053;-60
2023/07/07 06:44:42;;;;;;;2.00;1.23;;;;;;;17.91;40.79;100332.78;10386368;28;20050;-60
2023/07/07 06:49:44;;;;;;;2.53;1.10;;;;;;;18.20;40.51;100347.09;10387147;28;20106;-60
2023/07/07 06:54:46;;;;;;;2.30;1.20;;;;;;;18.13;40.57;100345.88;10387739;28;20042;-60
2023/07/07 06:59:48;;;;;;;1.75;1.00;;;;;;;18.69;40.06;100344.53;10386069;28;20597;-60
2023/07/07 07:04:50;;;;;;;3.15;1.60;;;;;;;19.01;39.53;100349.69;10385113;28;20052;-59
2023/07/07 07:09:52;;;;;;;1.88;1.10;;;;;;;20.13;38.46;100337.69;10386159;28;20053;-59
2023/07/07 07:14:54;;;;;;;4.40;1.35;;;;;;;21.75;37.12;100334.22;10384728;28;20383;-60
2023/07/07 07:19:56;;;;;;;2.30;1.30;;;;;;;23.62;35.29;100335.06;10381838;28;20064;-60
2023/07/07 07:24:58;;;;;;;5.20;1.23;;;;;;;24.87;33.24;100323.75;10384678;28;20057;-60
2023/07/07 07:30:00;;;;;;;2.10;0.90;;;;;;;26.20;32.06;100315.34;10383036;28;20053;-60
2023/07/07 07:35:03;;;;;;;1.65;1.10;;;;;;;27.03;30.43;100306.00;10383373;28;20460;-60
2023/07/07 07:40:06;;;;;;;2.63;1.33;;;;;;;27.64;29.87;100319.91;10385166;28;20064;-61
2023/07/07 07:45:15;;;;;;;2.25;0.90;;;;;;;27.72;27.14;100320.63;10383493;28;20049;-61
2023/07/07 07:50:21;;;;;;;1.55;1.00;;;;;;;28.09;28.59;100317.66;10383818;28;20045;-61
2023/07/07 07:55:23;;;;;;;1.65;0.95;;;;;;;27.74;28.56;100321.28;10384364;28;20042;-61
2023/07/07 08:00:24;;;;;;;3.17;0.90;;;;;;;28.10;28.35;100311.22;10385631;28;20050;-60
2023/07/07 08:05:26;;;;;;;1.65;0.85;;;;;;;28.70;27.75;100307.94;10382178;28;20505;-61
2023/07/07 08:10:28;;;;;;;1.70;0.90;;;;;;;29.15;27.13;100306.47;10385342;28;20521;-61
2023/07/07 08:15:30;;;;;;;1.75;0.90;;;;;;;29.29;26.16;100304.66;10383976;28;20057;-60
2023/07/07 08:20:32;;;;;;;1.45;0.90;;;;;;;29.64;25.63;100298.13;10385189;28;20413;-60
2023/07/07 08:25:35;;;;;;;1.55;0.90;;;;;;;29.44;25.54;100302.66;10382450;28;20043;-61
2023/07/07 08:30:37;;;;;;;1.40;1.10;;;;;;;29.47;25.43;100305.75;10384739;28;20131;-60
2023/07/07 08:35:39;;;;;;;1.13;0.98;;;;;;;29.44;25.16;100298.06;10379843;28;20520;-60
2023/07/07 08:40:54;;;;;;;2.05;1.00;;;;;;;29.58;23.59;100298.94;10369205;28;20041;-61
2023/07/07 08:46:17;;;;;;;1.92;0.98;;;;;;;29.87;25.31;100291.28;10377389;28;20052;-60
2023/07/07 08:51:33;;;;;;;1.95;0.80;;;;;;;30.83;23.81;100289.69;10385477;28;20049;-60
2023/07/07 08:56:53;;;;;;;1.48;0.93;;;;;;;30.55;23.17;100281.91;10386286;28;20053;-60
2023/07/07 09:02:10;;;;;;;1.52;0.98;;;;;;;30.21;22.95;100281.31;10401927;28;20887;-60
2023/07/07 09:07:15;;;;;;;2.17;1.10;;;;;;;30.36;23.53;100277.34;10387175;28;20128;-60
2023/07/07 09:12:29;;;;;;;1.25;0.88;;;;;;;30.47;22.41;100279.44;10387423;28;20041;-60
2023/07/07 09:17:41;;;;;;;2.17;0.88;;;;;;;30.36;22.73;100280.03;10386421;28;20069;-60
2023/07/07 09:22:56;;;;;;;2.35;1.20;;;;;;;30.15;23.04;100272.19;10388810;28;20057;-60
2023/07/07 09:28:05;;;;;;;2.20;1.00;;;;;;;30.10;22.35;100268.47;10386845;28;20121;-61
2023/07/07 09:33:16;;;;;;;1.48;0.90;;;;;;;30.25;22.98;100261.81;10387171;28;20138;-60
2023/07/07 09:38:45;;;;;;;1.17;0.90;;;;;;;30.58;22.69;100259.03;10387876;28;20682;-60
2023/07/07 09:44:31;;;;;;;2.00;1.10;;;;;;;30.67;22.11;100252.34;10384383;28;20060;-60
2023/07/07 09:49:45;;;;;;;1.25;0.82;;;;;;;30.72;21.81;100249.84;10390097;28;20575;-60
2023/07/07 09:54:48;;;;;;;1.67;0.90;;;;;;;30.35;22.51;100237.91;10386927;28;20076;-60
2023/07/07 09:59:53;;;;;;;3.85;1.00;;;;;;;30.47;21.85;100238.94;10382378;28;20544;-59
2023/07/07 10:05:01;;;;;;;2.65;1.05;;;;;;;30.39;20.99;100233.75;10384681;28;20060;-60
2023/07/07 10:10:05;;;;;;;1.30;0.98;;;;;;;30.53;21.57;100221.88;10377318;28;20057;-61
2023/07/07 10:15:47;;;;;;;1.30;0.88;;;;;;;30.89;19.79;100220.44;10381336;28;20068;-61
2023/07/07 10:20:52;;;;;;;1.48;0.85;;;;;;;30.74;21.04;100223.47;10382420;28;20095;-61
2023/07/07 10:25:54;;;;;;;1.83;1.10;;;;;;;30.69;21.32;100220.56;10379230;28;20060;-61
2023/07/07 10:30:57;;;;;;;1.67;0.90;;;;;;;30.92;21.32;100214.63;10383719;28;20517;-61
2023/07/07 10:36:17;;;;;;;2.63;1.17;;;;;;;30.98;20.13;100216.50;10378520;28;20148;-61
2023/07/07 10:41:19;;;;;;;1.95;1.10;;;;;;;30.11;21.16;100210.78;10378883;28;20049;-61
2023/07/07 10:46:21;;;;;;;2.35;1.20;;;;;;;30.05;21.31;100207.03;10378732;28;21075;-61
2023/07/07 10:51:37;;;;;;;1.38;0.90;;;;;;;29.98;20.74;100206.25;10367592;28;20552;-61
2023/07/07 10:56:46;;;;;;;1.13;0.57;;;;;;;29.49;20.74;100195.06;10378919;28;20803;-61
2023/07/07 11:02:04;;;;;;;2.08;1.13;;;;;;;29.11;19.67;100199.34;10378788;28;20060;-61
2023/07/07 11:07:46;;;;;;;2.38;1.10;;;;;;;29.20;19.45;100196.25;10375880;28;20061;-61
2023/07/07 11:13:17;;;;;;;1.80;1.02;;;;;;;29.15;19.84;100187.97;10374397;28;20470;-61
2023/07/07 11:18:38;;;;;;;1.63;0.90;;;;;;;28.94;19.60;100175.50;10363531;28;20064;-61
2023/07/07 11:23:56;;;;;;;3.65;1.27;;;;;;;29.50;19.47;100175.97;10374940;28;20042;-61
2023/07/07 11:29:04;;;;;;;2.17;1.15;;;;;;;29.68;19.01;100161.88;10376916;28;20054;-61
2023/07/07 11:34:30;;;;;;;3.10;1.20;;;;;;;29.76;19.71;100158.97;10373692;28;20095;-62
2023/07/07 11:39:59;;;;;;;4.72;1.20;;;;;;;29.81;19.55;100145.66;10391531;28;20049;-61
2023/07/07 11:45:19;;;;;;;2.55;1.30;;;;;;;29.60;19.60;100154.00;10372473;28;20156;-60
2023/07/07 11:50:49;;;;;;;1.73;1.10;;;;;;;29.36;18.10;100158.13;10378019;28;20083;-61
2023/07/07 11:56:00;;;;;;;3.92;1.40;;;;;;;29.31;16.98;100152.53;10373900;28;20092;-61
2023/07/07 12:01:21;;;;;;;2.67;1.33;;;;;;;29.04;17.76;100135.53;10375244;28;20067;-61
2023/07/07 12:06:35;;;;;;;2.35;1.35;;;;;;;29.13;17.61;100149.63;10372573;28;20045;-61
2023/07/07 12:11:48;;;;;;;3.47;1.33;;;;;;;28.90;18.36;100139.25;10372113;28;20041;-61
2023/07/07 12:16:52;;;;;;;3.47;1.80;;;;;;;28.89;18.20;100136.72;10375392;28;20856;-61
2023/07/07 12:21:56;;;;;;;2.50;1.05;;;;;;;28.88;18.87;100127.00;10385427;28;20155;-61
2023/07/07 12:27:23;;;;;;;2.50;1.40;;;;;;;29.12;19.02;100136.34;10382019;28;20639;-60
2023/07/07 12:32:25;;;;;;;2.47;1.20;;;;;;;29.17;18.90;100117.72;10375923;28;20045;-60
2023/07/07 12:37:28;;;;;;;2.35;1.27;;;;;;;29.48;19.45;100121.44;10386539;28;20053;-61
2023/07/07 12:42:32;;;;;;;2.67;1.30;;;;;;;29.56;18.81;100112.34;10381646;28;20041;-60
2023/07/07 12:47:37;;;;;;;3.05;1.50;;;;;;;29.74;19.27;100113.31;10378228;28;20045;-60
2023/07/07 12:52:44;;;;;;;5.25;1.40;;;;;;;29.95;18.62;100109.56;10379460;28;20167;-60
2023/07/07 12:58:21;;;;;;;4.53;1.50;;;;;;;30.07;17.66;100110.53;10368290;28;20045;-60
2023/07/07 13:03:23;;;;;;;4.28;2.10;;;;;;;30.19;18.79;100106.13;10380229;28;20599;-61
2023/07/07 13:08:38;;;;;;;5.68;1.77;;;;;;;30.24;18.15;100100.94;10384572;28;20151;-60
2023/07/07 13:13:44;;;;;;;5.35;1.98;;;;;;;30.45;17.25;100094.41;10381656;28;20053;-61
2023/07/07 13:18:47;;;;;;;4.20;1.65;;;;;;;30.52;17.34;100095.22;10382634;28;20124;-60
2023/07/07 13:23:50;;;;;;;3.85;1.70;;;;;;;30.53;17.67;100091.47;10382780;28;20049;-60
2023/07/07 13:28:59;;;;;;;4.70;1.70;;;;;;;30.31;16.59;100088.25;10384457;28;20135;-60
2023/07/07 13:34:01;;;;;;;3.95;1.90;;;;;;;30.29;15.75;100095.75;10335992;28;20134;-60
2023/07/07 13:39:07;;;;;;;4.82;2.33;;;;;;;30.23;16.12;100090.38;10382083;28;20052;-60
2023/07/07 13:44:18;;;;;;;3.72;1.73;;;;;;;30.33;16.25;100075.38;10382592;28;20049;-60
2023/07/07 13:49:21;;;;;;;4.53;2.00;;;;;;;30.30;17.10;100074.97;10383553;28;20120;-60
2023/07/07 13:54:24;;;;;;;3.75;2.00;;;;;;;30.30;16.38;100077.66;10382606;28;20049;-60
2023/07/07 13:59:29;;;;;;;4.30;1.98;;;;;;;30.05;17.23;100064.06;10379060;28;20159;-61
2023/07/07 14:04:36;;;;;;;4.22;1.95;;;;;;;30.40;16.80;100059.97;10372812;28;20076;-60
2023/07/07 14:09:41;;;;;;;3.92;1.70;;;;;;;30.26;17.05;100061.09;10379806;28;20148;-60
2023/07/07 14:14:51;;;;;;;3.13;1.60;;;;;;;30.41;17.18;100050.00;10376670;28;20091;-60
2023/07/07 14:20:27;;;;;;;5.18;2.10;;;;;;;30.63;15.84;100044.06;10379235;28;20049;-60
2023/07/07 14:25:29;;;;;;;4.35;1.73;;;;;;;30.63;16.24;100041.38;10362893;28;20045;-60
2023/07/07 14:30:30;;;;;;;6.32;2.33;;;;;;;30.71;16.40;100040.25;10396929;28;20053;-60
2023/07/07 14:35:33;;;;;;;4.07;1.90;;;;;;;30.92;16.78;100041.78;10388788;28;20080;-60
2023/07/07 14:40:45;;;;;;;4.03;1.85;;;;;;;31.19;16.06;100025.13;10386312;28;20045;-60
2023/07/07 14:45:50;;;;;;;3.53;1.70;;;;;;;31.45;16.81;100027.53;10388203;28;20049;-61
2023/07/07 14:50:54;;;;;;;8.45;2.30;;;;;;;31.55;16.36;100012.72;10387526;28;20061;-60
2023/07/07 14:55:56;;;;;;;5.10;2.08;;;;;;;31.35;16.04;100015.63;10388099;28;20131;-60
2023/07/07 15:01:06;;;;;;;4.53;1.98;;;;;;;31.29;15.46;100016.53;10370916;28;20148;-60
2023/07/07 15:06:08;;;;;;;5.55;2.22;;;;;;;31.34;15.78;100019.38;10386759;28;20073;-60
2023/07/07 15:11:12;;;;;;;4.93;1.80;;;;;;;31.27;15.28;100014.00;10387120;28;20057;-60
2023/07/07 15:16:22;;;;;;;5.13;2.20;;;;;;;31.22;14.64;100011.19;10387868;28;20049;-60
2023/07/07 15:21:26;;;;;;;4.75;2.17;;;;;;;31.21;14.98;100003.31;10387645;28;20045;-60
2023/07/07 15:26:30;;;;;;;5.70;2.10;;;;;;;30.95;15.54;100003.50;10385167;28;20141;-60
2023/07/07 15:31:32;;;;;;;5.45;2.15;;;;;;;31.15;15.31;100005.00;10386839;28;20139;-60
2023/07/07 15:36:34;;;;;;;4.32;1.92;;;;;;;31.13;15.21;100001.69;10387531;28;20108;-60
2023/07/07 15:41:36;;;;;;;4.57;1.73;;;;;;;31.00;15.12;99998.31;10386281;28;20054;-60
2023/07/07 15:46:39;;;;;;;4.28;1.88;;;;;;;30.87;15.00;99995.66;10383691;28;20054;-60
2023/07/07 15:51:51;;;;;;;4.90;1.95;;;;;;;30.69;15.31;99993.75;10386180;28;20050;-60
2023/07/07 15:56:54;;;;;;;5.07;2.10;;;;;;;30.65;15.62;99987.97;10386417;28;20045;-60
2023/07/07 16:01:56;;;;;;;4.35;2.30;;;;;;;30.85;15.84;99984.28;10385814;28;20046;-60
2023/07/07 16:06:58;;;;;;;3.25;1.83;;;;;;;30.95;15.90;99981.88;10386224;28;20103;-60
2023/07/07 16:12:00;;;;;;;4.45;2.03;;;;;;;31.04;16.27;99980.59;10385526;28;20064;-60
2023/07/07 16:17:09;;;;;;;5.35;1.83;;;;;;;30.99;16.26;99972.31;10385757;28;20053;-60
2023/07/07 16:22:16;;;;;;;5.15;1.75;;;;;;;31.02;16.17;99972.72;10386341;28;20111;-60
2023/07/07 16:27:18;;;;;;;3.72;1.75;;;;;;;30.95;16.85;99965.69;10385660;28;20067;-60
2023/07/07 16:32:20;;;;;;;3.92;1.73;;;;;;;30.90;16.88;99973.63;10386077;28;20135;-60
2023/07/07 16:37:22;;;;;;;3.50;1.67;;;;;;;30.89;17.00;99961.16;10384860;28;20152;-60
2023/07/07 16:42:24;;;;;;;3.78;1.80;;;;;;;31.02;16.88;99959.22;10384645;28;20077;-60
2023/07/07 16:47:26;;;;;;;4.35;1.60;;;;;;;31.15;17.20;99950.97;10385201;28;20052;-60
2023/07/07 16:52:28;;;;;;;5.35;1.80;;;;;;;31.06;17.38;99954.19;10384637;28;21283;-60
2023/07/07 16:57:30;;;;;;;5.25;1.85;;;;;;;31.02;17.51;99955.69;10383627;28;20148;-60
2023/07/07 17:02:32;;;;;;;4.22;2.13;;;;;;;30.84;17.49;99958.31;10385359;28;20045;-60
2023/07/07 17:07:34;;;;;;;4.93;1.83;;;;;;;30.67;17.31;99949.97;10390441;28;20061;-60
2023/07/07 17:12:37;;;;;;;5.75;1.90;;;;;;;30.62;17.58;99939.81;10391985;28;20053;-60
2023/07/07 17:17:39;;;;;;;5.05;2.20;;;;;;;30.58;17.43;99945.88;10391982;28;20060;-60
2023/07/07 17:22:41;;;;;;;6.63;1.90;;;;;;;30.39;17.48;99949.53;10387384;28;20493;-61
2023/07/07 17:27:45;;;;;;;4.97;2.00;;;;;;;30.35;17.42;99953.72;10385410;28;20061;-60
2023/07/07 17:32:48;;;;;;;3.38;1.80;;;;;;;30.32;17.55;99946.88;10373952;28;20219;-60
2023/07/07 17:37:50;;;;;;;4.97;1.83;;;;;;;30.18;17.74;99941.78;10378671;28;20038;-60
2023/07/07 17:42:52;;;;;;;5.22;2.53;;;;;;;30.02;18.30;99945.00;10380896;28;20535;-60
2023/07/07 17:47:54;;;;;;;5.25;2.30;;;;;;;29.73;18.73;99946.38;10385797;28;21159;-60
2023/07/07 17:52:56;;;;;;;3.47;2.00;;;;;;;29.42;19.29;99951.72;10384901;28;20477;-60
2023/07/07 17:57:58;;;;;;;5.18;2.20;;;;;;;29.14;19.73;99945.72;10383463;28;20045;-60
2023/07/07 18:03:00;;;;;;;5.20;2.15;;;;;;;28.79;20.65;99945.13;10377373;28;20055;-60
2023/07/07 18:08:03;;;;;;;4.90;2.10;;;;;;;28.63;20.77;99951.78;10379371;28;20060;-61
2023/07/07 18:13:05;;;;;;;5.13;2.10;;;;;;;28.48;21.68;99953.88;10377430;28;20132;-60
2023/07/07 18:18:11;;;;;;;4.18;2.13;;;;;;;28.32;22.64;99953.44;10378836;28;20733;-60
2023/07/07 18:23:33;;;;;;;5.20;2.30;;;;;;;28.14;22.77;99954.00;10385637;28;21208;-60
2023/07/07 18:28:35;;;;;;;5.25;2.20;;;;;;;28.00;23.33;99953.13;10378631;28;20443;-60
2023/07/07 18:33:37;;;;;;;5.55;2.25;;;;;;;27.86;23.75;99953.31;10386904;28;20132;-60
2023/07/07 18:38:39;;;;;;;5.05;2.08;;;;;;;27.69;24.54;99957.38;10384640;28;20136;-60
2023/07/07 18:43:42;;;;;;;6.00;2.80;;;;;;;27.49;24.83;99958.09;10380211;28;20992;-60
2023/07/07 18:48:45;;;;;;;6.65;2.40;;;;;;;27.03;25.36;99967.72;10386929;28;20054;-60
2023/07/07 18:53:50;;;;;;;5.75;2.67;;;;;;;26.54;25.67;99961.53;10387682;28;20536;-59
2023/07/07 18:58:52;;;;;;;7.15;2.25;;;;;;;26.26;26.43;99969.50;10382949;28;20063;-60
2023/07/07 19:03:54;;;;;;;5.68;2.35;;;;;;;25.98;27.07;99962.44;10384034;28;20135;-60
2023/07/07 19:08:58;;;;;;;4.57;2.00;;;;;;;25.70;27.44;99964.97;10381901;28;20136;-60
2023/07/07 19:14:02;;;;;;;5.10;1.88;;;;;;;25.27;27.17;99966.63;10382762;28;20053;-59
2023/07/07 19:19:11;;;;;;;4.90;2.08;;;;;;;25.07;28.48;99969.03;10379787;28;20132;-59
2023/07/07 19:24:15;;;;;;;5.07;2.30;;;;;;;24.94;28.69;99959.97;10382265;28;20041;-59
2023/07/07 19:29:17;;;;;;;4.78;2.38;;;;;;;24.58;29.29;99975.00;10379630;28;20132;-59
2023/07/07 19:34:19;;;;;;;4.55;1.90;;;;;;;24.31;30.46;99980.91;10384305;28;20045;-59
2023/07/07 19:39:25;;;;;;;5.25;2.45;;;;;;;23.99;30.35;99979.25;10380967;28;20053;-59
2023/07/07 19:44:27;;;;;;;4.82;2.22;;;;;;;23.82;30.90;99973.16;10385420;28;20049;-59
2023/07/07 19:49:29;;;;;;;4.63;2.03;;;;;;;23.73;31.19;99976.06;10383592;28;20050;-59
2023/07/07 19:54:31;;;;;;;5.95;2.17;;;;;;;23.45;31.73;99991.72;10383342;28;20386;-59
2023/07/07 19:59:33;;;;;;;5.13;2.20;;;;;;;23.41;32.27;99987.72;10384934;28;20233;-59
2023/07/07 20:04:35;;;;;;;5.80;2.50;;;;;;;23.18;32.67;100000.09;10383532;28;20052;-61
2023/07/07 20:09:38;;;;;;;6.00;2.30;;;;;;;22.68;33.60;100001.13;10380044;28;20045;-61
2023/07/07 20:14:40;;;;;;;7.57;2.50;;;;;;;22.67;33.93;100004.78;10378212;28;20301;-60
2023/07/07 20:19:42;;;;;;;9.35;2.13;;;;;;;22.70;33.86;100007.09;10380909;28;20061;-60
2023/07/07 20:24:44;;;;;;;5.97;2.50;;;;;;;22.17;34.56;100021.91;10384152;28;20099;-60
2023/07/07 20:29:46;;;;;;;3.53;1.80;;;;;;;22.25;34.56;100016.59;10385759;28;20049;-60
2023/07/07 20:34:48;;;;;;;5.72;2.38;;;;;;;22.19;34.42;100018.06;10382007;28;20060;-60
2023/07/07 20:39:50;;;;;;;6.32;2.20;;;;;;;21.92;35.00;100013.78;10386562;28;20136;-60
2023/07/07 20:44:52;;;;;;;4.70;2.00;;;;;;;21.71;35.77;100005.41;10390787;28;20052;-60
2023/07/07 20:49:54;;;;;;;5.68;2.60;;;;;;;21.83;35.64;100013.94;10390702;28;20416;-60
2023/07/07 20:54:56;;;;;;;5.95;2.78;;;;;;;21.78;36.26;100018.94;10389536;28;20049;-60
2023/07/07 20:59:58;;;;;;;6.57;2.70;;;;;;;21.14;36.82;100013.22;10390696;28;20041;-61
2023/07/07 21:05:01;;;;;;;6.00;2.28;;;;;;;20.67;37.13;100026.88;10388527;28;20037;-60
2023/07/07 21:10:23;;;;;;;5.20;2.15;;;;;;;20.83;38.44;100019.00;10388688;28;20037;-60
2023/07/07 21:15:26;;;;;;;7.25;2.25;;;;;;;20.96;37.38;100018.63;10400240;28;20588;-60
2023/07/07 21:20:33;;;;;;;4.55;2.00;;;;;;;20.98;37.69;100027.28;10388795;28;20042;-60
2023/07/07 21:25:35;;;;;;;8.00;2.58;;;;;;;20.63;37.63;100027.31;10388246;28;20140;-60
2023/07/07 21:30:38;;;;;;;5.93;2.47;;;;;;;20.53;38.32;100030.03;10386844;28;20128;-60
2023/07/07 21:35:40;;;;;;;5.80;2.30;;;;;;;20.36;38.24;100033.50;10387191;28;20233;-60
2023/07/07 21:40:43;;;;;;;5.22;2.15;;;;;;;20.44;38.66;100032.78;10385374;28;20047;-61
2023/07/07 21:45:45;;;;;;;8.20;2.40;;;;;;;20.38;38.83;100039.50;10389550;28;20606;-60
2023/07/07 21:50:47;;;;;;;5.28;2.40;;;;;;;20.29;39.76;100045.75;10387203;28;20157;-60
2023/07/07 21:55:49;;;;;;;4.88;2.13;;;;;;;20.25;39.54;100042.53;10386283;28;20319;-60
2023/07/07 22:00:51;;;;;;;4.85;2.28;;;;;;;19.61;40.12;100040.91;10387269;28;20052;-60
2023/07/07 22:05:53;;;;;;;6.35;2.30;;;;;;;19.58;40.25;100041.22;10384792;28;20693;-60
2023/07/07 22:10:56;;;;;;;6.75;2.80;;;;;;;19.82;40.28;100045.06;10384382;28;20509;-60
2023/07/07 22:15:58;;;;;;;5.80;2.42;;;;;;;19.74;40.32;100044.09;10388177;28;20061;-60
2023/07/07 22:21:02;;;;;;;5.97;2.70;;;;;;;19.08;41.52;100044.16;10383697;28;20156;-60
2023/07/07 22:26:24;;;;;;;6.15;2.35;;;;;;;18.65;43.39;100044.59;10384292;28;20080;-60
2023/07/07 22:31:26;;;;;;;5.45;2.33;;;;;;;18.58;42.07;100058.56;10384722;28;20486;-60
2023/07/07 22:36:29;;;;;;;4.93;2.38;;;;;;;18.46;42.27;100057.03;10385516;28;20045;-60
2023/07/07 22:41:31;;;;;;;5.38;2.30;;;;;;;18.26;42.37;100065.94;10385395;28;20041;-60
2023/07/07 22:46:40;;;;;;;4.82;2.20;;;;;;;18.33;43.83;100067.03;10388041;28;20045;-60
2023/07/07 22:51:42;;;;;;;5.03;2.38;;;;;;;18.60;42.66;100069.84;10387194;28;20464;-60
2023/07/07 22:56:44;;;;;;;5.50;2.25;;;;;;;18.75;42.35;100068.44;10403551;28;20461;-60
2023/07/07 23:01:46;;;;;;;5.72;2.53;;;;;;;18.51;42.71;100060.06;10387886;28;20458;-60
2023/07/07 23:06:48;;;;;;;5.22;2.53;;;;;;;18.39;43.02;100066.47;10386609;28;20053;-60
2023/07/07 23:11:50;;;;;;;7.32;2.90;;;;;;;18.51;43.18;100065.38;10386506;28;20084;-60
2023/07/07 23:16:53;;;;;;;4.95;2.45;;;;;;;18.45;43.00;100061.47;10360979;28;20057;-60
2023/07/07 23:21:57;;;;;;;5.90;2.30;;;;;;;18.13;43.77;100052.06;10385747;28;20060;-60
2023/07/07 23:27:01;;;;;;;5.80;2.60;;;;;;;17.70;44.31;100049.72;10388042;28;20137;-60
2023/07/07 23:32:08;;;;;;;6.65;2.58;;;;;;;17.52;45.25;100056.59;10384178;28;20172;-60